sensor_id;sensor_type;location;lat;lon;timestamp;P1;durP1;ratioP1;P2;durP2;ratioP2
57989;SDS011;58373;51.824;5.564;2023-01-29T00:02:03;27.15;;;16.05;;
57989;SDS011;58373;51.824;5.564;2023-01-29T00:04:29;25.17;;;15.23;;
57989;SDS011;58373;51.824;5.564;2023-01-29T00:06:55;26.55;;;14.80;;
57989;SDS011;58373;51.824;5.564;2023-01-29T00:09:20;24.75;;;13.85;;
57989;SDS011;58373;51.824;5.564;2023-01-29T00:11:45;24.98;;;14.15;;
57989;SDS011;58373;51.824;5.564;2023-01-29T00:14:11;27.50;;;14.85;;
57989;SDS011;58373;51.824;5.564;2023-01-29T00:16:37;24.50;;;14.25;;
57989;SDS011;58373;51.824;5.564;2023-01-29T00:19:02;25.80;;;14.63;;
57989;SDS011;58373;51.824;5.564;2023-01-29T00:21:28;26.17;;;14.10;;
57989;SDS011;58373;51.824;5.564;2023-01-29T00:23:55;23.58;;;13.80;;
57989;SDS011;58373;51.824;5.564;2023-01-29T00:26:20;24.70;;;14.15;;
57989;SDS011;58373;51.824;5.564;2023-01-29T00:28:46;25.73;;;14.60;;
57989;SDS011;58373;51.824;5.564;2023-01-29T00:31:13;24.00;;;14.73;;
57989;SDS011;58373;51.824;5.564;2023-01-29T00:33:40;24.10;;;14.45;;
57989;SDS011;58373;51.824;5.564;2023-01-29T00:36:06;26.45;;;14.35;;
57989;SDS011;58373;51.824;5.564;2023-01-29T00:38:33;25.20;;;13.63;;
57989;SDS011;58373;51.824;5.564;2023-01-29T00:41:12;25.38;;;13.95;;
57989;SDS011;58373;51.824;5.564;2023-01-29T00:43:58;25.70;;;14.27;;
57989;SDS011;58373;51.824;5.564;2023-01-29T00:46:43;27.83;;;14.75;;
57989;SDS011;58373;51.824;5.564;2023-01-29T00:49:09;23.63;;;13.27;;
57989;SDS011;58373;51.824;5.564;2023-01-29T00:51:35;29.88;;;15.65;;
57989;SDS011;58373;51.824;5.564;2023-01-29T00:54:01;25.70;;;14.63;;
57989;SDS011;58373;51.824;5.564;2023-01-29T00:56:30;24.30;;;13.45;;
57989;SDS011;58373;51.824;5.564;2023-01-29T00:58:57;25.15;;;14.63;;
57989;SDS011;58373;51.824;5.564;2023-01-29T01:01:22;26.48;;;13.90;;
57989;SDS011;58373;51.824;5.564;2023-01-29T01:04:06;26.20;;;15.60;;
57989;SDS011;58373;51.824;5.564;2023-01-29T01:06:35;26.38;;;14.70;;
57989;SDS011;58373;51.824;5.564;2023-01-29T01:09:01;26.23;;;14.10;;
57989;SDS011;58373;51.824;5.564;2023-01-29T01:11:46;24.63;;;13.85;;
57989;SDS011;58373;51.824;5.564;2023-01-29T01:14:11;23.10;;;13.93;;
57989;SDS011;58373;51.824;5.564;2023-01-29T01:16:36;25.58;;;14.50;;
57989;SDS011;58373;51.824;5.564;2023-01-29T01:19:02;26.80;;;15.20;;
57989;SDS011;58373;51.824;5.564;2023-01-29T01:21:28;28.05;;;14.32;;
57989;SDS011;58373;51.824;5.564;2023-01-29T01:23:53;27.35;;;15.60;;
57989;SDS011;58373;51.824;5.564;2023-01-29T01:26:18;28.40;;;15.75;;
57989;SDS011;58373;51.824;5.564;2023-01-29T01:28:44;26.92;;;14.73;;
57989;SDS011;58373;51.824;5.564;2023-01-29T01:31:10;26.48;;;15.23;;
57989;SDS011;58373;51.824;5.564;2023-01-29T01:33:36;29.02;;;16.13;;
57989;SDS011;58373;51.824;5.564;2023-01-29T01:36:02;27.42;;;15.63;;
57989;SDS011;58373;51.824;5.564;2023-01-29T01:38:28;27.05;;;15.63;;
57989;SDS011;58373;51.824;5.564;2023-01-29T01:40:54;25.77;;;14.43;;
57989;SDS011;58373;51.824;5.564;2023-01-29T01:43:19;26.60;;;14.80;;
57989;SDS011;58373;51.824;5.564;2023-01-29T01:45:45;26.98;;;15.68;;
57989;SDS011;58373;51.824;5.564;2023-01-29T01:48:11;27.13;;;13.80;;
57989;SDS011;58373;51.824;5.564;2023-01-29T01:53:12;28.05;;;15.30;;
57989;SDS011;58373;51.824;5.564;2023-01-29T01:55:51;28.88;;;16.45;;
57989;SDS011;58373;51.824;5.564;2023-01-29T01:58:29;30.67;;;15.95;;
57989;SDS011;58373;51.824;5.564;2023-01-29T02:00:58;29.60;;;15.98;;
57989;SDS011;58373;51.824;5.564;2023-01-29T02:03:24;28.02;;;14.98;;
57989;SDS011;58373;51.824;5.564;2023-01-29T02:06:11;30.98;;;16.27;;
57989;SDS011;58373;51.824;5.564;2023-01-29T02:08:59;28.98;;;16.00;;
57989;SDS011;58373;51.824;5.564;2023-01-29T02:11:49;28.23;;;15.18;;
57989;SDS011;58373;51.824;5.564;2023-01-29T02:14:14;27.27;;;16.17;;
57989;SDS011;58373;51.824;5.564;2023-01-29T02:16:40;29.20;;;16.23;;
57989;SDS011;58373;51.824;5.564;2023-01-29T02:19:09;28.92;;;15.95;;
57989;SDS011;58373;51.824;5.564;2023-01-29T02:29:50;29.45;;;16.58;;
57989;SDS011;58373;51.824;5.564;2023-01-29T02:32:30;28.83;;;15.02;;
57989;SDS011;58373;51.824;5.564;2023-01-29T02:38:00;29.83;;;15.20;;
57989;SDS011;58373;51.824;5.564;2023-01-29T02:40:50;29.60;;;15.35;;
57989;SDS011;58373;51.824;5.564;2023-01-29T02:43:29;26.88;;;15.15;;
57989;SDS011;58373;51.824;5.564;2023-01-29T02:46:23;28.85;;;16.02;;
57989;SDS011;58373;51.824;5.564;2023-01-29T02:49:01;29.08;;;15.50;;
57989;SDS011;58373;51.824;5.564;2023-01-29T02:54:11;30.42;;;16.38;;
57989;SDS011;58373;51.824;5.564;2023-01-29T02:56:46;31.15;;;15.77;;
57989;SDS011;58373;51.824;5.564;2023-01-29T02:59:19;30.27;;;17.25;;
57989;SDS011;58373;51.824;5.564;2023-01-29T03:01:54;29.45;;;17.05;;
57989;SDS011;58373;51.824;5.564;2023-01-29T03:04:26;29.42;;;16.50;;
57989;SDS011;58373;51.824;5.564;2023-01-29T03:07:02;25.95;;;14.60;;
57989;SDS011;58373;51.824;5.564;2023-01-29T03:09:41;27.00;;;15.00;;
57989;SDS011;58373;51.824;5.564;2023-01-29T03:12:16;30.02;;;17.52;;
57989;SDS011;58373;51.824;5.564;2023-01-29T03:15:15;30.40;;;16.42;;
57989;SDS011;58373;51.824;5.564;2023-01-29T03:18:02;27.75;;;15.77;;
57989;SDS011;58373;51.824;5.564;2023-01-29T03:20:36;30.30;;;16.90;;
57989;SDS011;58373;51.824;5.564;2023-01-29T03:23:13;31.13;;;16.83;;
57989;SDS011;58373;51.824;5.564;2023-01-29T03:25:48;31.38;;;16.50;;
57989;SDS011;58373;51.824;5.564;2023-01-29T03:28:36;31.38;;;17.13;;
57989;SDS011;58373;51.824;5.564;2023-01-29T03:31:22;32.05;;;16.90;;
57989;SDS011;58373;51.824;5.564;2023-01-29T03:34:11;31.70;;;17.27;;
57989;SDS011;58373;51.824;5.564;2023-01-29T03:39:19;30.95;;;17.50;;
57989;SDS011;58373;51.824;5.564;2023-01-29T03:41:47;31.20;;;17.52;;
57989;SDS011;58373;51.824;5.564;2023-01-29T03:44:16;28.15;;;15.65;;
57989;SDS011;58373;51.824;5.564;2023-01-29T03:46:58;30.25;;;17.48;;
57989;SDS011;58373;51.824;5.564;2023-01-29T03:55:16;30.17;;;17.38;;
57989;SDS011;58373;51.824;5.564;2023-01-29T04:00:25;32.80;;;17.23;;
57989;SDS011;58373;51.824;5.564;2023-01-29T04:03:00;30.90;;;15.73;;
57989;SDS011;58373;51.824;5.564;2023-01-29T04:05:43;30.48;;;16.67;;
57989;SDS011;58373;51.824;5.564;2023-01-29T04:08:17;29.83;;;17.02;;
57989;SDS011;58373;51.824;5.564;2023-01-29T04:10:48;29.10;;;16.05;;
57989;SDS011;58373;51.824;5.564;2023-01-29T04:13:15;30.75;;;15.80;;
57989;SDS011;58373;51.824;5.564;2023-01-29T04:15:44;28.83;;;16.45;;
57989;SDS011;58373;51.824;5.564;2023-01-29T04:18:14;29.70;;;16.48;;
57989;SDS011;58373;51.824;5.564;2023-01-29T04:20:40;31.83;;;17.45;;
57989;SDS011;58373;51.824;5.564;2023-01-29T04:23:06;30.50;;;18.08;;
57989;SDS011;58373;51.824;5.564;2023-01-29T04:25:44;29.65;;;15.93;;
57989;SDS011;58373;51.824;5.564;2023-01-29T04:36:25;30.83;;;17.55;;
57989;SDS011;58373;51.824;5.564;2023-01-29T04:41:32;33.10;;;18.58;;
57989;SDS011;58373;51.824;5.564;2023-01-29T04:49:24;38.05;;;20.15;;
57989;SDS011;58373;51.824;5.564;2023-01-29T04:54:42;35.05;;;19.27;;
57989;SDS011;58373;51.824;5.564;2023-01-29T04:57:18;34.30;;;19.70;;
57989;SDS011;58373;51.824;5.564;2023-01-29T04:59:51;33.58;;;19.17;;
57989;SDS011;58373;51.824;5.564;2023-01-29T05:02:21;32.65;;;19.23;;
57989;SDS011;58373;51.824;5.564;2023-01-29T05:04:48;32.92;;;18.45;;
57989;SDS011;58373;51.824;5.564;2023-01-29T05:07:14;31.63;;;18.67;;
57989;SDS011;58373;51.824;5.564;2023-01-29T05:09:42;32.85;;;18.40;;
57989;SDS011;58373;51.824;5.564;2023-01-29T05:12:11;32.38;;;18.05;;
57989;SDS011;58373;51.824;5.564;2023-01-29T05:14:40;32.67;;;19.33;;
57989;SDS011;58373;51.824;5.564;2023-01-29T05:17:09;32.47;;;18.92;;
57989;SDS011;58373;51.824;5.564;2023-01-29T05:19:39;34.55;;;20.48;;
57989;SDS011;58373;51.824;5.564;2023-01-29T05:22:05;35.67;;;19.08;;
57989;SDS011;58373;51.824;5.564;2023-01-29T05:24:35;32.10;;;17.42;;
57989;SDS011;58373;51.824;5.564;2023-01-29T05:27:00;32.80;;;18.73;;
57989;SDS011;58373;51.824;5.564;2023-01-29T05:29:45;34.08;;;19.15;;
57989;SDS011;58373;51.824;5.564;2023-01-29T05:32:11;34.42;;;19.05;;
57989;SDS011;58373;51.824;5.564;2023-01-29T05:34:37;33.17;;;18.77;;
57989;SDS011;58373;51.824;5.564;2023-01-29T05:37:03;36.08;;;19.05;;
57989;SDS011;58373;51.824;5.564;2023-01-29T05:39:28;33.60;;;18.13;;
57989;SDS011;58373;51.824;5.564;2023-01-29T05:41:54;31.23;;;18.02;;
57989;SDS011;58373;51.824;5.564;2023-01-29T05:44:19;32.58;;;18.10;;
57989;SDS011;58373;51.824;5.564;2023-01-29T05:46:44;33.58;;;17.77;;
57989;SDS011;58373;51.824;5.564;2023-01-29T05:49:10;31.33;;;18.05;;
57989;SDS011;58373;51.824;5.564;2023-01-29T05:51:36;31.45;;;17.90;;
57989;SDS011;58373;51.824;5.564;2023-01-29T05:54:01;34.70;;;18.00;;
57989;SDS011;58373;51.824;5.564;2023-01-29T05:56:26;31.48;;;17.92;;
57989;SDS011;58373;51.824;5.564;2023-01-29T05:58:52;32.38;;;18.85;;
57989;SDS011;58373;51.824;5.564;2023-01-29T06:01:18;32.90;;;18.67;;
57989;SDS011;58373;51.824;5.564;2023-01-29T06:03:45;31.98;;;17.88;;
57989;SDS011;58373;51.824;5.564;2023-01-29T06:06:11;32.35;;;18.50;;
57989;SDS011;58373;51.824;5.564;2023-01-29T06:08:37;34.10;;;19.55;;
57989;SDS011;58373;51.824;5.564;2023-01-29T06:11:02;32.75;;;18.40;;
57989;SDS011;58373;51.824;5.564;2023-01-29T06:13:30;34.17;;;19.33;;
57989;SDS011;58373;51.824;5.564;2023-01-29T06:15:56;33.97;;;19.50;;
57989;SDS011;58373;51.824;5.564;2023-01-29T06:18:21;35.88;;;21.13;;
57989;SDS011;58373;51.824;5.564;2023-01-29T06:20:46;33.60;;;19.02;;
57989;SDS011;58373;51.824;5.564;2023-01-29T06:23:12;34.03;;;19.27;;
57989;SDS011;58373;51.824;5.564;2023-01-29T06:25:37;36.60;;;19.88;;
57989;SDS011;58373;51.824;5.564;2023-01-29T06:28:02;37.00;;;20.27;;
57989;SDS011;58373;51.824;5.564;2023-01-29T06:30:28;37.55;;;21.23;;
57989;SDS011;58373;51.824;5.564;2023-01-29T06:32:56;37.17;;;19.88;;
57989;SDS011;58373;51.824;5.564;2023-01-29T06:35:23;34.25;;;19.50;;
57989;SDS011;58373;51.824;5.564;2023-01-29T06:37:49;35.67;;;20.40;;
57989;SDS011;58373;51.824;5.564;2023-01-29T06:40:14;34.83;;;20.15;;
57989;SDS011;58373;51.824;5.564;2023-01-29T06:42:40;35.55;;;19.77;;
57989;SDS011;58373;51.824;5.564;2023-01-29T06:45:05;35.90;;;21.23;;
57989;SDS011;58373;51.824;5.564;2023-01-29T06:47:31;36.22;;;21.15;;
57989;SDS011;58373;51.824;5.564;2023-01-29T06:49:56;36.38;;;20.05;;
57989;SDS011;58373;51.824;5.564;2023-01-29T06:52:22;33.90;;;20.50;;
57989;SDS011;58373;51.824;5.564;2023-01-29T06:54:49;37.35;;;21.08;;
57989;SDS011;58373;51.824;5.564;2023-01-29T06:57:14;34.60;;;19.58;;
57989;SDS011;58373;51.824;5.564;2023-01-29T06:59:39;34.85;;;19.85;;
57989;SDS011;58373;51.824;5.564;2023-01-29T07:02:05;39.08;;;22.15;;
57989;SDS011;58373;51.824;5.564;2023-01-29T07:04:30;38.30;;;21.50;;
57989;SDS011;58373;51.824;5.564;2023-01-29T07:06:57;35.38;;;20.50;;
57989;SDS011;58373;51.824;5.564;2023-01-29T07:09:23;34.92;;;20.33;;
57989;SDS011;58373;51.824;5.564;2023-01-29T07:11:48;34.22;;;18.58;;
57989;SDS011;58373;51.824;5.564;2023-01-29T07:14:14;35.22;;;21.02;;
57989;SDS011;58373;51.824;5.564;2023-01-29T07:16:39;35.88;;;19.88;;
57989;SDS011;58373;51.824;5.564;2023-01-29T07:19:04;35.60;;;20.08;;
57989;SDS011;58373;51.824;5.564;2023-01-29T07:21:30;35.22;;;20.67;;
57989;SDS011;58373;51.824;5.564;2023-01-29T07:23:55;36.55;;;20.73;;
57989;SDS011;58373;51.824;5.564;2023-01-29T07:26:21;36.70;;;21.10;;
57989;SDS011;58373;51.824;5.564;2023-01-29T07:28:46;38.03;;;21.63;;
57989;SDS011;58373;51.824;5.564;2023-01-29T07:31:12;36.05;;;20.83;;
57989;SDS011;58373;51.824;5.564;2023-01-29T07:33:39;32.72;;;20.63;;
57989;SDS011;58373;51.824;5.564;2023-01-29T07:36:08;32.47;;;19.17;;
57989;SDS011;58373;51.824;5.564;2023-01-29T07:38:34;36.08;;;20.63;;
57989;SDS011;58373;51.824;5.564;2023-01-29T07:40:59;34.97;;;21.35;;
57989;SDS011;58373;51.824;5.564;2023-01-29T07:43:25;35.47;;;21.50;;
57989;SDS011;58373;51.824;5.564;2023-01-29T07:45:50;33.85;;;20.67;;
57989;SDS011;58373;51.824;5.564;2023-01-29T07:48:16;33.03;;;20.38;;
57989;SDS011;58373;51.824;5.564;2023-01-29T07:50:42;33.28;;;20.65;;
57989;SDS011;58373;51.824;5.564;2023-01-29T07:53:11;33.10;;;20.80;;
57989;SDS011;58373;51.824;5.564;2023-01-29T07:55:38;35.15;;;20.10;;
57989;SDS011;58373;51.824;5.564;2023-01-29T07:58:04;34.53;;;20.30;;
57989;SDS011;58373;51.824;5.564;2023-01-29T08:00:30;34.45;;;20.67;;
57989;SDS011;58373;51.824;5.564;2023-01-29T08:03:03;34.38;;;20.85;;
57989;SDS011;58373;51.824;5.564;2023-01-29T08:05:29;32.65;;;20.13;;
57989;SDS011;58373;51.824;5.564;2023-01-29T08:07:55;33.83;;;21.35;;
57989;SDS011;58373;51.824;5.564;2023-01-29T08:10:21;31.70;;;19.00;;
57989;SDS011;58373;51.824;5.564;2023-01-29T08:12:46;31.75;;;19.50;;
57989;SDS011;58373;51.824;5.564;2023-01-29T08:15:11;32.35;;;19.40;;
57989;SDS011;58373;51.824;5.564;2023-01-29T08:17:37;35.50;;;20.15;;
57989;SDS011;58373;51.824;5.564;2023-01-29T08:20:04;30.67;;;19.23;;
57989;SDS011;58373;51.824;5.564;2023-01-29T08:22:31;31.55;;;18.67;;
57989;SDS011;58373;51.824;5.564;2023-01-29T08:24:56;31.60;;;18.98;;
57989;SDS011;58373;51.824;5.564;2023-01-29T08:27:21;33.45;;;19.85;;
57989;SDS011;58373;51.824;5.564;2023-01-29T08:29:47;31.30;;;17.75;;
57989;SDS011;58373;51.824;5.564;2023-01-29T08:32:12;32.13;;;20.00;;
57989;SDS011;58373;51.824;5.564;2023-01-29T08:34:38;30.00;;;18.52;;
57989;SDS011;58373;51.824;5.564;2023-01-29T08:37:03;30.02;;;18.30;;
57989;SDS011;58373;51.824;5.564;2023-01-29T08:39:31;29.75;;;18.23;;
57989;SDS011;58373;51.824;5.564;2023-01-29T08:41:57;30.05;;;17.73;;
57989;SDS011;58373;51.824;5.564;2023-01-29T08:44:22;31.15;;;18.25;;
57989;SDS011;58373;51.824;5.564;2023-01-29T08:46:47;30.15;;;19.42;;
57989;SDS011;58373;51.824;5.564;2023-01-29T08:49:13;33.13;;;19.80;;
57989;SDS011;58373;51.824;5.564;2023-01-29T08:51:38;32.25;;;19.27;;
57989;SDS011;58373;51.824;5.564;2023-01-29T08:54:03;35.72;;;17.42;;
57989;SDS011;58373;51.824;5.564;2023-01-29T08:56:29;31.40;;;18.63;;
57989;SDS011;58373;51.824;5.564;2023-01-29T08:58:54;29.52;;;18.00;;
57989;SDS011;58373;51.824;5.564;2023-01-29T09:01:19;34.05;;;19.15;;
57989;SDS011;58373;51.824;5.564;2023-01-29T09:03:44;30.75;;;19.20;;
57989;SDS011;58373;51.824;5.564;2023-01-29T09:06:11;29.27;;;17.38;;
57989;SDS011;58373;51.824;5.564;2023-01-29T09:08:37;28.55;;;17.17;;
57989;SDS011;58373;51.824;5.564;2023-01-29T09:11:03;29.45;;;18.45;;
57989;SDS011;58373;51.824;5.564;2023-01-29T09:13:28;27.80;;;16.80;;
57989;SDS011;58373;51.824;5.564;2023-01-29T09:15:57;30.73;;;17.45;;
57989;SDS011;58373;51.824;5.564;2023-01-29T09:18:22;28.63;;;17.00;;
57989;SDS011;58373;51.824;5.564;2023-01-29T09:20:48;28.60;;;18.25;;
57989;SDS011;58373;51.824;5.564;2023-01-29T09:23:14;33.95;;;17.92;;
57989;SDS011;58373;51.824;5.564;2023-01-29T09:25:41;30.55;;;18.42;;
57989;SDS011;58373;51.824;5.564;2023-01-29T09:28:06;28.98;;;16.35;;
57989;SDS011;58373;51.824;5.564;2023-01-29T09:30:32;28.00;;;18.00;;
57989;SDS011;58373;51.824;5.564;2023-01-29T09:32:59;30.40;;;18.75;;
57989;SDS011;58373;51.824;5.564;2023-01-29T09:35:24;27.40;;;17.52;;
57989;SDS011;58373;51.824;5.564;2023-01-29T09:37:50;28.75;;;17.70;;
57989;SDS011;58373;51.824;5.564;2023-01-29T09:40:22;26.65;;;17.13;;
57989;SDS011;58373;51.824;5.564;2023-01-29T09:42:55;26.02;;;16.42;;
57989;SDS011;58373;51.824;5.564;2023-01-29T09:45:26;28.58;;;16.60;;
57989;SDS011;58373;51.824;5.564;2023-01-29T09:47:55;26.52;;;16.75;;
57989;SDS011;58373;51.824;5.564;2023-01-29T09:50:36;24.73;;;15.32;;
57989;SDS011;58373;51.824;5.564;2023-01-29T09:53:17;26.88;;;16.58;;
57989;SDS011;58373;51.824;5.564;2023-01-29T09:55:48;24.17;;;15.40;;
57989;SDS011;58373;51.824;5.564;2023-01-29T10:09:39;27.70;;;16.65;;
57989;SDS011;58373;51.824;5.564;2023-01-29T10:15:05;23.52;;;14.68;;
57989;SDS011;58373;51.824;5.564;2023-01-29T10:25:38;22.05;;;14.43;;
57989;SDS011;58373;51.824;5.564;2023-01-29T10:28:12;21.58;;;14.50;;
57989;SDS011;58373;51.824;5.564;2023-01-29T10:30:43;26.55;;;16.13;;
57989;SDS011;58373;51.824;5.564;2023-01-29T10:33:15;22.55;;;14.95;;
57989;SDS011;58373;51.824;5.564;2023-01-29T10:35:43;25.90;;;16.15;;
57989;SDS011;58373;51.824;5.564;2023-01-29T10:38:27;23.85;;;15.18;;
57989;SDS011;58373;51.824;5.564;2023-01-29T10:43:50;22.42;;;15.00;;
57989;SDS011;58373;51.824;5.564;2023-01-29T10:59:58;23.77;;;15.98;;
57989;SDS011;58373;51.824;5.564;2023-01-29T11:02:25;27.23;;;16.33;;
57989;SDS011;58373;51.824;5.564;2023-01-29T11:04:51;25.20;;;15.88;;
57989;SDS011;58373;51.824;5.564;2023-01-29T11:07:17;25.85;;;15.48;;
57989;SDS011;58373;51.824;5.564;2023-01-29T11:09:56;25.80;;;16.75;;
57989;SDS011;58373;51.824;5.564;2023-01-29T11:12:31;25.48;;;15.85;;
57989;SDS011;58373;51.824;5.564;2023-01-29T11:17:29;25.73;;;16.52;;
57989;SDS011;58373;51.824;5.564;2023-01-29T11:19:55;25.90;;;17.10;;
57989;SDS011;58373;51.824;5.564;2023-01-29T11:22:21;25.95;;;17.20;;
57989;SDS011;58373;51.824;5.564;2023-01-29T11:32:49;29.52;;;17.83;;
57989;SDS011;58373;51.824;5.564;2023-01-29T11:35:19;24.92;;;16.27;;
57989;SDS011;58373;51.824;5.564;2023-01-29T11:37:46;27.10;;;18.13;;
57989;SDS011;58373;51.824;5.564;2023-01-29T11:43:10;27.02;;;19.50;;
57989;SDS011;58373;51.824;5.564;2023-01-29T11:45:37;26.17;;;16.58;;
57989;SDS011;58373;51.824;5.564;2023-01-29T11:48:04;27.70;;;17.60;;
57989;SDS011;58373;51.824;5.564;2023-01-29T11:50:35;28.15;;;18.35;;
57989;SDS011;58373;51.824;5.564;2023-01-29T11:53:01;26.60;;;18.90;;
57989;SDS011;58373;51.824;5.564;2023-01-29T11:55:29;29.70;;;19.27;;
57989;SDS011;58373;51.824;5.564;2023-01-29T11:58:00;28.35;;;18.25;;
57989;SDS011;58373;51.824;5.564;2023-01-29T12:00:29;29.40;;;18.05;;
57989;SDS011;58373;51.824;5.564;2023-01-29T12:05:29;28.10;;;17.77;;
57989;SDS011;58373;51.824;5.564;2023-01-29T12:07:55;26.40;;;17.67;;
57989;SDS011;58373;51.824;5.564;2023-01-29T12:10:37;28.95;;;18.83;;
57989;SDS011;58373;51.824;5.564;2023-01-29T12:15:36;31.58;;;19.42;;
57989;SDS011;58373;51.824;5.564;2023-01-29T12:20:54;27.88;;;18.42;;
57989;SDS011;58373;51.824;5.564;2023-01-29T12:25:57;26.77;;;17.48;;
57989;SDS011;58373;51.824;5.564;2023-01-29T12:32:02;26.50;;;16.85;;
57989;SDS011;58373;51.824;5.564;2023-01-29T12:37:10;28.40;;;18.13;;
57989;SDS011;58373;51.824;5.564;2023-01-29T12:39:43;27.83;;;17.92;;
57989;SDS011;58373;51.824;5.564;2023-01-29T12:42:18;29.90;;;19.40;;
57989;SDS011;58373;51.824;5.564;2023-01-29T12:45:05;28.40;;;17.92;;
57989;SDS011;58373;51.824;5.564;2023-01-29T12:47:36;27.65;;;17.58;;
57989;SDS011;58373;51.824;5.564;2023-01-29T12:50:08;27.00;;;18.55;;
57989;SDS011;58373;51.824;5.564;2023-01-29T12:52:57;29.35;;;18.25;;
57989;SDS011;58373;51.824;5.564;2023-01-29T12:58:01;28.25;;;18.20;;
57989;SDS011;58373;51.824;5.564;2023-01-29T13:00:31;28.02;;;18.67;;
57989;SDS011;58373;51.824;5.564;2023-01-29T13:03:03;29.92;;;19.83;;
57989;SDS011;58373;51.824;5.564;2023-01-29T13:06:18;30.50;;;19.60;;
57989;SDS011;58373;51.824;5.564;2023-01-29T13:08:44;31.55;;;20.73;;
57989;SDS011;58373;51.824;5.564;2023-01-29T13:11:20;30.40;;;19.00;;
57989;SDS011;58373;51.824;5.564;2023-01-29T13:13:48;32.42;;;21.17;;
57989;SDS011;58373;51.824;5.564;2023-01-29T13:16:21;32.60;;;20.42;;
57989;SDS011;58373;51.824;5.564;2023-01-29T13:18:58;32.35;;;21.25;;
57989;SDS011;58373;51.824;5.564;2023-01-29T13:21:28;34.45;;;22.25;;
57989;SDS011;58373;51.824;5.564;2023-01-29T13:24:01;31.15;;;20.58;;
57989;SDS011;58373;51.824;5.564;2023-01-29T13:26:29;33.55;;;20.70;;
57989;SDS011;58373;51.824;5.564;2023-01-29T13:28:55;33.28;;;21.25;;
57989;SDS011;58373;51.824;5.564;2023-01-29T13:34:29;33.67;;;21.75;;
57989;SDS011;58373;51.824;5.564;2023-01-29T13:36:44;35.40;;;21.65;;
57989;SDS011;58373;51.824;5.564;2023-01-29T13:39:19;33.53;;;21.98;;
57989;SDS011;58373;51.824;5.564;2023-01-29T13:41:49;35.05;;;22.83;;
57989;SDS011;58373;51.824;5.564;2023-01-29T13:47:02;36.15;;;20.73;;
57989;SDS011;58373;51.824;5.564;2023-01-29T13:52:14;33.72;;;21.15;;
57989;SDS011;58373;51.824;5.564;2023-01-29T13:54:50;36.33;;;21.00;;
57989;SDS011;58373;51.824;5.564;2023-01-29T14:00:54;35.90;;;21.73;;
57989;SDS011;58373;51.824;5.564;2023-01-29T14:07:57;37.42;;;22.67;;
57989;SDS011;58373;51.824;5.564;2023-01-29T14:10:27;34.97;;;22.73;;
57989;SDS011;58373;51.824;5.564;2023-01-29T14:12:55;33.90;;;20.70;;
57989;SDS011;58373;51.824;5.564;2023-01-29T14:15:42;35.38;;;22.20;;
57989;SDS011;58373;51.824;5.564;2023-01-29T14:18:18;34.83;;;22.05;;
57989;SDS011;58373;51.824;5.564;2023-01-29T14:23:20;33.38;;;22.33;;
57989;SDS011;58373;51.824;5.564;2023-01-29T14:25:46;33.40;;;22.80;;
57989;SDS011;58373;51.824;5.564;2023-01-29T14:28:15;36.30;;;24.20;;
57989;SDS011;58373;51.824;5.564;2023-01-29T14:30:46;34.38;;;23.13;;
57989;SDS011;58373;51.824;5.564;2023-01-29T14:33:27;34.58;;;21.77;;
57989;SDS011;58373;51.824;5.564;2023-01-29T14:35:57;35.88;;;21.65;;
57989;SDS011;58373;51.824;5.564;2023-01-29T14:38:27;35.17;;;20.60;;
57989;SDS011;58373;51.824;5.564;2023-01-29T14:41:04;33.72;;;21.60;;
57989;SDS011;58373;51.824;5.564;2023-01-29T14:43:33;34.75;;;20.42;;
57989;SDS011;58373;51.824;5.564;2023-01-29T14:46:39;35.17;;;22.65;;
57989;SDS011;58373;51.824;5.564;2023-01-29T14:48:59;37.33;;;23.80;;
57989;SDS011;58373;51.824;5.564;2023-01-29T14:51:24;37.40;;;23.35;;
57989;SDS011;58373;51.824;5.564;2023-01-29T14:53:53;37.80;;;22.55;;
57989;SDS011;58373;51.824;5.564;2023-01-29T14:56:25;37.42;;;22.17;;
57989;SDS011;58373;51.824;5.564;2023-01-29T14:59:03;38.92;;;22.55;;
57989;SDS011;58373;51.824;5.564;2023-01-29T15:01:38;36.97;;;23.60;;
57989;SDS011;58373;51.824;5.564;2023-01-29T15:06:37;37.03;;;22.00;;
57989;SDS011;58373;51.824;5.564;2023-01-29T15:11:43;40.70;;;23.92;;
57989;SDS011;58373;51.824;5.564;2023-01-29T15:19:34;36.65;;;22.42;;
57989;SDS011;58373;51.824;5.564;2023-01-29T15:22:19;37.47;;;22.80;;
57989;SDS011;58373;51.824;5.564;2023-01-29T15:24:47;37.95;;;23.70;;
57989;SDS011;58373;51.824;5.564;2023-01-29T15:27:26;36.83;;;22.70;;
57989;SDS011;58373;51.824;5.564;2023-01-29T15:29:59;36.60;;;22.80;;
57989;SDS011;58373;51.824;5.564;2023-01-29T15:32:27;39.40;;;23.17;;
57989;SDS011;58373;51.824;5.564;2023-01-29T15:34:57;36.83;;;23.02;;
57989;SDS011;58373;51.824;5.564;2023-01-29T15:37:30;38.47;;;22.08;;
57989;SDS011;58373;51.824;5.564;2023-01-29T15:39:57;38.70;;;22.95;;
57989;SDS011;58373;51.824;5.564;2023-01-29T15:42:24;37.00;;;24.08;;
57989;SDS011;58373;51.824;5.564;2023-01-29T15:44:52;34.90;;;22.27;;
57989;SDS011;58373;51.824;5.564;2023-01-29T15:47:19;37.50;;;20.73;;
57989;SDS011;58373;51.824;5.564;2023-01-29T15:49:50;38.80;;;20.85;;
57989;SDS011;58373;51.824;5.564;2023-01-29T15:52:18;35.65;;;21.98;;
57989;SDS011;58373;51.824;5.564;2023-01-29T15:54:47;36.13;;;22.48;;
57989;SDS011;58373;51.824;5.564;2023-01-29T15:57:21;36.00;;;22.42;;
57989;SDS011;58373;51.824;5.564;2023-01-29T15:59:49;36.85;;;22.02;;
57989;SDS011;58373;51.824;5.564;2023-01-29T16:02:35;37.67;;;22.02;;
57989;SDS011;58373;51.824;5.564;2023-01-29T16:05:10;36.60;;;20.98;;
57989;SDS011;58373;51.824;5.564;2023-01-29T16:07:37;38.65;;;22.52;;
57989;SDS011;58373;51.824;5.564;2023-01-29T16:10:03;34.40;;;21.45;;
57989;SDS011;58373;51.824;5.564;2023-01-29T16:12:29;35.40;;;22.02;;
57989;SDS011;58373;51.824;5.564;2023-01-29T16:14:57;37.90;;;21.23;;
57989;SDS011;58373;51.824;5.564;2023-01-29T16:17:29;35.92;;;20.33;;
57989;SDS011;58373;51.824;5.564;2023-01-29T16:20:00;33.83;;;20.52;;
57989;SDS011;58373;51.824;5.564;2023-01-29T16:22:31;36.47;;;21.25;;
57989;SDS011;58373;51.824;5.564;2023-01-29T16:25:05;36.45;;;20.90;;
57989;SDS011;58373;51.824;5.564;2023-01-29T16:27:36;35.40;;;21.05;;
57989;SDS011;58373;51.824;5.564;2023-01-29T16:30:03;27.95;;;18.20;;
57989;SDS011;58373;51.824;5.564;2023-01-29T16:32:29;31.73;;;19.73;;
57989;SDS011;58373;51.824;5.564;2023-01-29T16:34:56;37.83;;;20.27;;
57989;SDS011;58373;51.824;5.564;2023-01-29T16:37:31;33.05;;;18.63;;
57989;SDS011;58373;51.824;5.564;2023-01-29T16:40:00;30.50;;;19.00;;
57989;SDS011;58373;51.824;5.564;2023-01-29T16:42:37;33.65;;;20.58;;
57989;SDS011;58373;51.824;5.564;2023-01-29T16:45:05;34.15;;;20.77;;
57989;SDS011;58373;51.824;5.564;2023-01-29T16:48:00;30.98;;;18.48;;
57989;SDS011;58373;51.824;5.564;2023-01-29T16:50:42;34.50;;;20.20;;
57989;SDS011;58373;51.824;5.564;2023-01-29T16:53:12;31.63;;;19.33;;
57989;SDS011;58373;51.824;5.564;2023-01-29T16:55:43;31.60;;;19.13;;
57989;SDS011;58373;51.824;5.564;2023-01-29T16:58:12;30.50;;;19.83;;
57989;SDS011;58373;51.824;5.564;2023-01-29T17:00:49;29.75;;;18.45;;
57989;SDS011;58373;51.824;5.564;2023-01-29T17:03:17;35.67;;;20.45;;
57989;SDS011;58373;51.824;5.564;2023-01-29T17:05:44;33.22;;;18.95;;